sensor_id;sensor_type;location;lat;lon;timestamp;temperature;humidity
29813;DHT22;16707;48.106;11.548;2023-07-09T00:02:20;16.70;99.90
29813;DHT22;16707;48.106;11.548;2023-07-09T00:04:49;16.60;99.90
29813;DHT22;16707;48.106;11.548;2023-07-09T00:07:19;16.60;99.90
29813;DHT22;16707;48.106;11.548;2023-07-09T00:09:48;16.60;99.90
29813;DHT22;16707;48.106;11.548;2023-07-09T00:12:17;16.60;99.90
29813;DHT22;16707;48.106;11.548;2023-07-09T00:14:44;16.60;99.90
29813;DHT22;16707;48.106;11.548;2023-07-09T00:17:24;16.50;99.90
29813;DHT22;16707;48.106;11.548;2023-07-09T00:19:54;16.50;99.90
29813;DHT22;16707;48.106;11.548;2023-07-09T00:22:21;16.50;99.90
29813;DHT22;16707;48.106;11.548;2023-07-09T00:24:50;16.50;99.90
29813;DHT22;16707;48.106;11.548;2023-07-09T00:27:18;16.50;99.90
29813;DHT22;16707;48.106;11.548;2023-07-09T00:29:46;16.50;99.90
29813;DHT22;16707;48.106;11.548;2023-07-09T00:32:14;16.40;99.90
29813;DHT22;16707;48.106;11.548;2023-07-09T00:34:42;16.30;99.90
29813;DHT22;16707;48.106;11.548;2023-07-09T00:37:16;16.30;99.90
29813;DHT22;16707;48.106;11.548;2023-07-09T00:39:45;16.30;99.90
29813;DHT22;16707;48.106;11.548;2023-07-09T00:42:13;16.30;99.90
29813;DHT22;16707;48.106;11.548;2023-07-09T00:44:44;16.40;99.90
29813;DHT22;16707;48.106;11.548;2023-07-09T00:47:35;16.40;99.90
29813;DHT22;16707;48.106;11.548;2023-07-09T00:50:18;16.30;99.90
29813;DHT22;16707;48.106;11.548;2023-07-09T00:52:58;16.30;99.90
29813;DHT22;16707;48.106;11.548;2023-07-09T00:55:30;16.20;99.90
29813;DHT22;16707;48.106;11.548;2023-07-09T00:58:02;16.10;99.90
29813;DHT22;16707;48.106;11.548;2023-07-09T01:00:33;16.10;99.90
29813;DHT22;16707;48.106;11.548;2023-07-09T01:03:08;16.10;99.90
29813;DHT22;16707;48.106;11.548;2023-07-09T01:05:37;16.10;99.90
29813;DHT22;16707;48.106;11.548;2023-07-09T01:08:07;16.10;99.90
29813;DHT22;16707;48.106;11.548;2023-07-09T01:10:35;16.10;99.90
29813;DHT22;16707;48.106;11.548;2023-07-09T01:13:02;16.10;99.90
29813;DHT22;16707;48.106;11.548;2023-07-09T01:15:29;16.10;99.90
29813;DHT22;16707;48.106;11.548;2023-07-09T01:17:56;16.00;99.90
29813;DHT22;16707;48.106;11.548;2023-07-09T01:20:23;16.00;99.90
29813;DHT22;16707;48.106;11.548;2023-07-09T01:22:52;16.00;99.90
29813;DHT22;16707;48.106;11.548;2023-07-09T01:25:23;15.90;99.90
29813;DHT22;16707;48.106;11.548;2023-07-09T01:27:50;15.90;99.90
29813;DHT22;16707;48.106;11.548;2023-07-09T01:30:23;16.00;99.90
29813;DHT22;16707;48.106;11.548;2023-07-09T01:32:56;16.00;99.90
29813;DHT22;16707;48.106;11.548;2023-07-09T01:35:23;16.00;99.90
29813;DHT22;16707;48.106;11.548;2023-07-09T01:37:52;15.90;99.90
29813;DHT22;16707;48.106;11.548;2023-07-09T01:40:22;15.90;99.90
29813;DHT22;16707;48.106;11.548;2023-07-09T01:42:50;15.90;99.90
29813;DHT22;16707;48.106;11.548;2023-07-09T01:45:17;15.90;99.90
29813;DHT22;16707;48.106;11.548;2023-07-09T01:47:46;15.90;99.90
29813;DHT22;16707;48.106;11.548;2023-07-09T01:50:13;15.90;99.90
29813;DHT22;16707;48.106;11.548;2023-07-09T01:52:42;15.80;99.90
29813;DHT22;16707;48.106;11.548;2023-07-09T01:55:13;15.90;99.90
29813;DHT22;16707;48.106;11.548;2023-07-09T01:57:42;15.90;99.90
29813;DHT22;16707;48.106;11.548;2023-07-09T02:00:13;15.90;99.90
29813;DHT22;16707;48.106;11.548;2023-07-09T02:02:42;15.80;99.90
29813;DHT22;16707;48.106;11.548;2023-07-09T02:05:10;15.80;99.90
29813;DHT22;16707;48.106;11.548;2023-07-09T02:07:38;15.80;99.90
29813;DHT22;16707;48.106;11.548;2023-07-09T02:10:06;15.80;99.90
29813;DHT22;16707;48.106;11.548;2023-07-09T02:12:35;15.80;99.90
29813;DHT22;16707;48.106;11.548;2023-07-09T02:15:02;15.80;99.90
29813;DHT22;16707;48.106;11.548;2023-07-09T02:17:29;15.90;99.90
29813;DHT22;16707;48.106;11.548;2023-07-09T02:19:56;15.90;99.90
29813;DHT22;16707;48.106;11.548;2023-07-09T02:22:23;15.90;99.90
29813;DHT22;16707;48.106;11.548;2023-07-09T02:24:49;15.90;99.90
29813;DHT22;16707;48.106;11.548;2023-07-09T02:27:19;15.90;99.90
29813;DHT22;16707;48.106;11.548;2023-07-09T02:29:48;15.90;99.90
29813;DHT22;16707;48.106;11.548;2023-07-09T02:32:18;15.90;99.90
29813;DHT22;16707;48.106;11.548;2023-07-09T02:34:46;16.00;99.90
29813;DHT22;16707;48.106;11.548;2023-07-09T02:37:15;16.00;99.90
29813;DHT22;16707;48.106;11.548;2023-07-09T02:39:43;16.00;99.90
29813;DHT22;16707;48.106;11.548;2023-07-09T02:42:10;16.00;99.90
29813;DHT22;16707;48.106;11.548;2023-07-09T02:44:40;16.00;99.90
29813;DHT22;16707;48.106;11.548;2023-07-09T02:47:09;16.00;99.90
29813;DHT22;16707;48.106;11.548;2023-07-09T02:49:37;16.10;99.90
29813;DHT22;16707;48.106;11.548;2023-07-09T02:52:05;16.20;99.90
29813;DHT22;16707;48.106;11.548;2023-07-09T02:54:33;16.30;99.90
29813;DHT22;16707;48.106;11.548;2023-07-09T02:57:00;16.30;99.90
29813;DHT22;16707;48.106;11.548;2023-07-09T02:59:27;16.20;99.90
29813;DHT22;16707;48.106;11.548;2023-07-09T03:01:55;16.20;99.90
29813;DHT22;16707;48.106;11.548;2023-07-09T03:04:23;16.20;99.90
29813;DHT22;16707;48.106;11.548;2023-07-09T03:06:51;16.20;99.90
29813;DHT22;16707;48.106;11.548;2023-07-09T03:09:17;16.20;99.90
29813;DHT22;16707;48.106;11.548;2023-07-09T03:11:45;16.20;99.90
29813;DHT22;16707;48.106;11.548;2023-07-09T03:14:13;16.20;99.90
29813;DHT22;16707;48.106;11.548;2023-07-09T03:16:40;16.20;99.90
29813;DHT22;16707;48.106;11.548;2023-07-09T03:19:07;16.20;99.90
29813;DHT22;16707;48.106;11.548;2023-07-09T03:21:36;16.20;99.90
29813;DHT22;16707;48.106;11.548;2023-07-09T03:24:03;16.30;99.90
29813;DHT22;16707;48.106;11.548;2023-07-09T03:26:31;16.30;99.90
29813;DHT22;16707;48.106;11.548;2023-07-09T03:28:58;16.20;99.90
29813;DHT22;16707;48.106;11.548;2023-07-09T03:31:25;16.20;99.90
29813;DHT22;16707;48.106;11.548;2023-07-09T03:33:52;16.30;99.90
29813;DHT22;16707;48.106;11.548;2023-07-09T03:36:19;16.30;99.90
29813;DHT22;16707;48.106;11.548;2023-07-09T03:38:48;16.40;99.90
29813;DHT22;16707;48.106;11.548;2023-07-09T03:41:15;16.40;99.90
29813;DHT22;16707;48.106;11.548;2023-07-09T03:43:42;16.40;99.90
29813;DHT22;16707;48.106;11.548;2023-07-09T03:46:10;16.40;99.90
29813;DHT22;16707;48.106;11.548;2023-07-09T03:48:37;16.50;99.90
29813;DHT22;16707;48.106;11.548;2023-07-09T03:51:04;16.60;99.90
29813;DHT22;16707;48.106;11.548;2023-07-09T03:53:32;16.70;99.90
29813;DHT22;16707;48.106;11.548;2023-07-09T03:56:00;16.70;99.90
29813;DHT22;16707;48.106;11.548;2023-07-09T03:58:27;16.80;99.90
29813;DHT22;16707;48.106;11.548;2023-07-09T04:00:55;16.90;99.90
29813;DHT22;16707;48.106;11.548;2023-07-09T04:03:22;17.00;99.90
29813;DHT22;16707;48.106;11.548;2023-07-09T04:05:49;17.10;99.90
29813;DHT22;16707;48.106;11.548;2023-07-09T04:08:17;17.10;99.90
29813;DHT22;16707;48.106;11.548;2023-07-09T04:10:44;17.20;99.90
29813;DHT22;16707;48.106;11.548;2023-07-09T04:13:12;17.30;99.90
29813;DHT22;16707;48.106;11.548;2023-07-09T04:15:39;17.40;99.90
29813;DHT22;16707;48.106;11.548;2023-07-09T04:18:06;17.50;99.90
29813;DHT22;16707;48.106;11.548;2023-07-09T04:20:33;17.60;99.90
29813;DHT22;16707;48.106;11.548;2023-07-09T04:23:01;17.70;99.90
29813;DHT22;16707;48.106;11.548;2023-07-09T04:25:28;17.70;99.90
29813;DHT22;16707;48.106;11.548;2023-07-09T04:27:55;17.80;99.90
29813;DHT22;16707;48.106;11.548;2023-07-09T04:30:24;17.90;99.90
29813;DHT22;16707;48.106;11.548;2023-07-09T04:32:50;18.00;99.90
29813;DHT22;16707;48.106;11.548;2023-07-09T04:35:17;18.10;99.90
29813;DHT22;16707;48.106;11.548;2023-07-09T04:37:44;18.20;99.90
29813;DHT22;16707;48.106;11.548;2023-07-09T04:40:12;18.40;99.90
29813;DHT22;16707;48.106;11.548;2023-07-09T04:42:41;18.50;99.90
29813;DHT22;16707;48.106;11.548;2023-07-09T04:45:09;18.80;99.90
29813;DHT22;16707;48.106;11.548;2023-07-09T04:47:39;19.70;99.90
29813;DHT22;16707;48.106;11.548;2023-07-09T04:50:11;21.30;99.90
29813;DHT22;16707;48.106;11.548;2023-07-09T04:52:39;22.60;99.90
29813;DHT22;16707;48.106;11.548;2023-07-09T04:55:06;24.10;99.90
29813;DHT22;16707;48.106;11.548;2023-07-09T04:57:35;25.90;99.90
29813;DHT22;16707;48.106;11.548;2023-07-09T05:00:02;27.40;94.60
29813;DHT22;16707;48.106;11.548;2023-07-09T05:02:31;28.90;88.80
29813;DHT22;16707;48.106;11.548;2023-07-09T05:04:59;30.50;78.30
29813;DHT22;16707;48.106;11.548;2023-07-09T05:07:26;32.20;70.40
29813;DHT22;16707;48.106;11.548;2023-07-09T05:09:53;33.60;62.60
29813;DHT22;16707;48.106;11.548;2023-07-09T05:12:20;34.80;58.00
29813;DHT22;16707;48.106;11.548;2023-07-09T05:14:47;35.10;53.50
29813;DHT22;16707;48.106;11.548;2023-07-09T05:17:14;36.50;51.20
29813;DHT22;16707;48.106;11.548;2023-07-09T05:19:42;37.40;48.30
29813;DHT22;16707;48.106;11.548;2023-07-09T05:22:10;38.60;46.60
29813;DHT22;16707;48.106;11.548;2023-07-09T05:24:37;39.10;44.70
29813;DHT22;16707;48.106;11.548;2023-07-09T05:27:04;39.80;43.00
29813;DHT22;16707;48.106;11.548;2023-07-09T05:29:31;40.10;41.70
29813;DHT22;16707;48.106;11.548;2023-07-09T05:31:58;40.60;41.20
29813;DHT22;16707;48.106;11.548;2023-07-09T05:34:25;41.10;39.80
29813;DHT22;16707;48.106;11.548;2023-07-09T05:36:53;41.80;38.80
29813;DHT22;16707;48.106;11.548;2023-07-09T05:39:21;41.50;37.30
29813;DHT22;16707;48.106;11.548;2023-07-09T05:41:48;42.20;37.20
29813;DHT22;16707;48.106;11.548;2023-07-09T05:44:15;43.00;36.40
29813;DHT22;16707;48.106;11.548;2023-07-09T05:46:42;42.30;36.30
29813;DHT22;16707;48.106;11.548;2023-07-09T05:49:09;43.40;35.50
29813;DHT22;16707;48.106;11.548;2023-07-09T05:51:36;43.50;34.80
29813;DHT22;16707;48.106;11.548;2023-07-09T05:54:03;44.20;34.50
29813;DHT22;16707;48.106;11.548;2023-07-09T05:56:31;44.50;33.60
29813;DHT22;16707;48.106;11.548;2023-07-09T05:58:59;44.30;33.10
29813;DHT22;16707;48.106;11.548;2023-07-09T06:01:25;42.60;33.00
29813;DHT22;16707;48.106;11.548;2023-07-09T06:03:53;42.10;34.90
29813;DHT22;16707;48.106;11.548;2023-07-09T06:06:20;43.30;34.20
29813;DHT22;16707;48.106;11.548;2023-07-09T06:08:47;43.20;33.20
29813;DHT22;16707;48.106;11.548;2023-07-09T06:11:15;44.30;32.50
29813;DHT22;16707;48.106;11.548;2023-07-09T06:13:46;44.50;32.20
29813;DHT22;16707;48.106;11.548;2023-07-09T06:16:13;45.00;30.40
29813;DHT22;16707;48.106;11.548;2023-07-09T06:18:40;46.70;29.60
29813;DHT22;16707;48.106;11.548;2023-07-09T06:21:07;44.80;30.00
29813;DHT22;16707;48.106;11.548;2023-07-09T06:23:36;44.80;30.10
29813;DHT22;16707;48.106;11.548;2023-07-09T06:26:04;45.60;29.90
29813;DHT22;16707;48.106;11.548;2023-07-09T06:28:31;46.20;29.20
29813;DHT22;16707;48.106;11.548;2023-07-09T06:31:00;45.50;28.90
29813;DHT22;16707;48.106;11.548;2023-07-09T06:33:27;47.80;28.10
29813;DHT22;16707;48.106;11.548;2023-07-09T06:35:57;46.50;28.60
29813;DHT22;16707;48.106;11.548;2023-07-09T06:38:25;46.70;28.70
29813;DHT22;16707;48.106;11.548;2023-07-09T06:40:52;44.60;29.20
29813;DHT22;16707;48.106;11.548;2023-07-09T06:43:20;44.70;29.90
29813;DHT22;16707;48.106;11.548;2023-07-09T06:45:52;43.90;30.00
29813;DHT22;16707;48.106;11.548;2023-07-09T06:48:22;45.80;29.00
29813;DHT22;16707;48.106;11.548;2023-07-09T06:50:49;46.50;28.80
29813;DHT22;16707;48.106;11.548;2023-07-09T06:53:19;47.20;27.80
29813;DHT22;16707;48.106;11.548;2023-07-09T06:55:46;47.30;27.30
29813;DHT22;16707;48.106;11.548;2023-07-09T06:58:15;47.70;26.50
29813;DHT22;16707;48.106;11.548;2023-07-09T07:00:43;48.20;26.80
29813;DHT22;16707;48.106;11.548;2023-07-09T07:03:10;48.90;26.20
29813;DHT22;16707;48.106;11.548;2023-07-09T07:05:43;47.80;26.20
29813;DHT22;16707;48.106;11.548;2023-07-09T07:08:10;47.40;26.00
29813;DHT22;16707;48.106;11.548;2023-07-09T07:10:37;47.40;26.00
29813;DHT22;16707;48.106;11.548;2023-07-09T07:13:04;47.40;26.10
29813;DHT22;16707;48.106;11.548;2023-07-09T07:15:31;48.70;25.00
29813;DHT22;16707;48.106;11.548;2023-07-09T07:17:58;47.80;25.80
29813;DHT22;16707;48.106;11.548;2023-07-09T07:20:25;47.20;26.20
29813;DHT22;16707;48.106;11.548;2023-07-09T07:22:53;46.70;26.40
29813;DHT22;16707;48.106;11.548;2023-07-09T07:25:20;46.60;26.60
29813;DHT22;16707;48.106;11.548;2023-07-09T07:27:47;46.10;26.50
29813;DHT22;16707;48.106;11.548;2023-07-09T07:30:14;46.00;26.40
29813;DHT22;16707;48.106;11.548;2023-07-09T07:32:44;45.20;26.20
29813;DHT22;16707;48.106;11.548;2023-07-09T07:35:12;44.10;26.50
29813;DHT22;16707;48.106;11.548;2023-07-09T07:37:40;41.10;28.00
29813;DHT22;16707;48.106;11.548;2023-07-09T07:40:10;39.20;30.10
29813;DHT22;16707;48.106;11.548;2023-07-09T07:42:37;37.60;32.50
29813;DHT22;16707;48.106;11.548;2023-07-09T07:45:05;35.80;36.70
29813;DHT22;16707;48.106;11.548;2023-07-09T07:47:33;34.50;37.80
29813;DHT22;16707;48.106;11.548;2023-07-09T07:50:01;32.80;41.40
29813;DHT22;16707;48.106;11.548;2023-07-09T07:52:28;32.20;43.80
29813;DHT22;16707;48.106;11.548;2023-07-09T07:54:55;31.30;44.00
29813;DHT22;16707;48.106;11.548;2023-07-09T07:57:24;30.60;46.20
29813;DHT22;16707;48.106;11.548;2023-07-09T07:59:52;30.50;48.90
29813;DHT22;16707;48.106;11.548;2023-07-09T08:02:20;30.40;46.30
29813;DHT22;16707;48.106;11.548;2023-07-09T08:04:47;30.30;47.70
29813;DHT22;16707;48.106;11.548;2023-07-09T08:07:14;30.10;47.50
29813;DHT22;16707;48.106;11.548;2023-07-09T08:09:40;29.90;47.50
29813;DHT22;16707;48.106;11.548;2023-07-09T08:12:08;29.40;50.20
29813;DHT22;16707;48.106;11.548;2023-07-09T08:14:40;29.30;51.40
29813;DHT22;16707;48.106;11.548;2023-07-09T08:17:08;29.20;49.90
29813;DHT22;16707;48.106;11.548;2023-07-09T08:19:44;29.10;49.50
29813;DHT22;16707;48.106;11.548;2023-07-09T08:22:13;29.10;50.10
29813;DHT22;16707;48.106;11.548;2023-07-09T08:24:41;28.90;49.20
29813;DHT22;16707;48.106;11.548;2023-07-09T08:27:09;29.00;50.30
29813;DHT22;16707;48.106;11.548;2023-07-09T08:29:36;29.00;49.10
29813;DHT22;16707;48.106;11.548;2023-07-09T08:32:05;28.80;50.30
29813;DHT22;16707;48.106;11.548;2023-07-09T08:34:33;28.80;50.00
29813;DHT22;16707;48.106;11.548;2023-07-09T08:37:00;28.90;50.30
29813;DHT22;16707;48.106;11.548;2023-07-09T08:39:28;28.90;47.60
29813;DHT22;16707;48.106;11.548;2023-07-09T08:41:59;28.90;45.70
29813;DHT22;16707;48.106;11.548;2023-07-09T08:44:56;29.00;45.00
29813;DHT22;16707;48.106;11.548;2023-07-09T08:47:35;29.00;45.10
29813;DHT22;16707;48.106;11.548;2023-07-09T08:50:11;29.10;46.60
29813;DHT22;16707;48.106;11.548;2023-07-09T08:52:41;29.00;48.20
29813;DHT22;16707;48.106;11.548;2023-07-09T08:55:14;28.90;48.30
29813;DHT22;16707;48.106;11.548;2023-07-09T08:57:43;28.80;46.90
29813;DHT22;16707;48.106;11.548;2023-07-09T09:00:16;28.90;47.00
29813;DHT22;16707;48.106;11.548;2023-07-09T09:02:51;28.80;47.80
29813;DHT22;16707;48.106;11.548;2023-07-09T09:05:20;28.80;46.90
29813;DHT22;16707;48.106;11.548;2023-07-09T09:07:51;28.90;47.50
29813;DHT22;16707;48.106;11.548;2023-07-09T09:10:29;28.80;47.30
29813;DHT22;16707;48.106;11.548;2023-07-09T09:13:07;28.80;47.00
29813;DHT22;16707;48.106;11.548;2023-07-09T09:15:37;29.00;47.50
29813;DHT22;16707;48.106;11.548;2023-07-09T09:18:25;28.80;48.00
29813;DHT22;16707;48.106;11.548;2023-07-09T09:20:57;28.80;47.40
29813;DHT22;16707;48.106;11.548;2023-07-09T09:23:35;29.10;47.60
29813;DHT22;16707;48.106;11.548;2023-07-09T09:26:18;29.20;46.70
29813;DHT22;16707;48.106;11.548;2023-07-09T09:28:49;29.30;46.40
29813;DHT22;16707;48.106;11.548;2023-07-09T09:31:17;29.30;46.20
29813;DHT22;16707;48.106;11.548;2023-07-09T09:33:48;29.40;46.80
29813;DHT22;16707;48.106;11.548;2023-07-09T09:36:16;29.40;46.30
29813;DHT22;16707;48.106;11.548;2023-07-09T09:38:46;29.60;46.30
29813;DHT22;16707;48.106;11.548;2023-07-09T09:41:15;29.70;45.60
29813;DHT22;16707;48.106;11.548;2023-07-09T09:43:45;29.90;44.80
29813;DHT22;16707;48.106;11.548;2023-07-09T09:46:22;30.00;43.90
29813;DHT22;16707;48.106;11.548;2023-07-09T09:48:54;30.10;44.70
29813;DHT22;16707;48.106;11.548;2023-07-09T09:51:23;30.20;44.50
29813;DHT22;16707;48.106;11.548;2023-07-09T09:53:52;30.10;43.60
29813;DHT22;16707;48.106;11.548;2023-07-09T09:56:24;30.00;43.60
29813;DHT22;16707;48.106;11.548;2023-07-09T09:58:54;30.10;43.30
29813;DHT22;16707;48.106;11.548;2023-07-09T10:01:27;30.20;43.70
29813;DHT22;16707;48.106;11.548;2023-07-09T10:03:58;30.30;43.30
29813;DHT22;16707;48.106;11.548;2023-07-09T10:06:34;30.20;41.90
29813;DHT22;16707;48.106;11.548;2023-07-09T10:09:08;30.10;43.40
29813;DHT22;16707;48.106;11.548;2023-07-09T10:11:46;30.20;44.00
29813;DHT22;16707;48.106;11.548;2023-07-09T10:14:29;30.30;43.50
29813;DHT22;16707;48.106;11.548;2023-07-09T10:16:58;30.60;43.70
29813;DHT22;16707;48.106;11.548;2023-07-09T10:19:37;30.70;42.30
29813;DHT22;16707;48.106;11.548;2023-07-09T10:22:15;30.70;41.50
29813;DHT22;16707;48.106;11.548;2023-07-09T10:24:57;30.40;40.60
29813;DHT22;16707;48.106;11.548;2023-07-09T10:27:33;30.20;41.20
29813;DHT22;16707;48.106;11.548;2023-07-09T10:30:19;30.30;41.80
29813;DHT22;16707;48.106;11.548;2023-07-09T10:33:05;30.30;41.10
29813;DHT22;16707;48.106;11.548;2023-07-09T10:35:41;30.60;41.50
29813;DHT22;16707;48.106;11.548;2023-07-09T10:38:22;30.70;41.20
29813;DHT22;16707;48.106;11.548;2023-07-09T10:41:00;31.00;41.90
29813;DHT22;16707;48.106;11.548;2023-07-09T10:43:35;31.30;42.70
29813;DHT22;16707;48.106;11.548;2023-07-09T10:46:09;31.60;40.60
29813;DHT22;16707;48.106;11.548;2023-07-09T10:48:40;31.60;39.90
29813;DHT22;16707;48.106;11.548;2023-07-09T10:51:17;31.60;40.30
29813;DHT22;16707;48.106;11.548;2023-07-09T10:53:51;31.70;40.30
29813;DHT22;16707;48.106;11.548;2023-07-09T10:56:26;31.60;39.00
29813;DHT22;16707;48.106;11.548;2023-07-09T10:59:00;31.70;39.60
29813;DHT22;16707;48.106;11.548;2023-07-09T11:01:34;32.00;39.10
29813;DHT22;16707;48.106;11.548;2023-07-09T11:04:06;32.20;38.40
29813;DHT22;16707;48.106;11.548;2023-07-09T11:06:41;32.30;38.30
29813;DHT22;16707;48.106;11.548;2023-07-09T11:09:17;32.10;39.00
29813;DHT22;16707;48.106;11.548;2023-07-09T11:11:52;31.80;41.70
29813;DHT22;16707;48.106;11.548;2023-07-09T11:14:26;31.50;41.50
29813;DHT22;16707;48.106;11.548;2023-07-09T11:16:56;31.10;42.60
29813;DHT22;16707;48.106;11.548;2023-07-09T11:19:26;31.00;41.20
29813;DHT22;16707;48.106;11.548;2023-07-09T11:22:02;30.70;42.10
29813;DHT22;16707;48.106;11.548;2023-07-09T11:24:35;30.60;44.10
29813;DHT22;16707;48.106;11.548;2023-07-09T11:27:19;30.60;43.60
29813;DHT22;16707;48.106;11.548;2023-07-09T11:29:55;30.40;43.60
29813;DHT22;16707;48.106;11.548;2023-07-09T11:32:24;30.30;42.20
29813;DHT22;16707;48.106;11.548;2023-07-09T11:34:51;30.10;43.60
29813;DHT22;16707;48.106;11.548;2023-07-09T11:37:25;30.10;43.50
29813;DHT22;16707;48.106;11.548;2023-07-09T11:39:52;30.10;44.50
29813;DHT22;16707;48.106;11.548;2023-07-09T11:42:28;30.00;43.90
29813;DHT22;16707;48.106;11.548;2023-07-09T11:45:07;30.00;43.80
29813;DHT22;16707;48.106;11.548;2023-07-09T11:47:39;30.00;43.90
29813;DHT22;16707;48.106;11.548;2023-07-09T11:50:20;29.90;47.60
29813;DHT22;16707;48.106;11.548;2023-07-09T11:52:54;29.90;48.30
29813;DHT22;16707;48.106;11.548;2023-07-09T11:55:26;29.90;46.20
29813;DHT22;16707;48.106;11.548;2023-07-09T11:57:55;29.90;47.00
29813;DHT22;16707;48.106;11.548;2023-07-09T12:00:23;30.00;46.00
29813;DHT22;16707;48.106;11.548;2023-07-09T12:02:51;30.10;46.60
29813;DHT22;16707;48.106;11.548;2023-07-09T12:05:21;30.10;45.40
29813;DHT22;16707;48.106;11.548;2023-07-09T12:07:53;30.20;43.90
29813;DHT22;16707;48.106;11.548;2023-07-09T12:10:23;30.30;43.80
29813;DHT22;16707;48.106;11.548;2023-07-09T12:12:54;30.60;43.70
29813;DHT22;16707;48.106;11.548;2023-07-09T12:15:24;30.80;43.80
29813;DHT22;16707;48.106;11.548;2023-07-09T12:17:56;31.10;42.70
29813;DHT22;16707;48.106;11.548;2023-07-09T12:20:25;31.50;41.80
29813;DHT22;16707;48.106;11.548;2023-07-09T12:22:53;31.80;42.30
29813;DHT22;16707;48.106;11.548;2023-07-09T12:25:23;32.00;41.80
29813;DHT22;16707;48.106;11.548;2023-07-09T12:27:52;32.10;42.10
29813;DHT22;16707;48.106;11.548;2023-07-09T12:30:20;32.00;41.00
29813;DHT22;16707;48.106;11.548;2023-07-09T12:32:48;32.30;40.90
29813;DHT22;16707;48.106;11.548;2023-07-09T12:35:18;32.40;39.10
29813;DHT22;16707;48.106;11.548;2023-07-09T12:37:47;32.50;39.40
29813;DHT22;16707;48.106;11.548;2023-07-09T12:40:20;32.60;39.50
29813;DHT22;16707;48.106;11.548;2023-07-09T12:42:48;32.70;38.80
29813;DHT22;16707;48.106;11.548;2023-07-09T12:45:17;32.50;38.40
29813;DHT22;16707;48.106;11.548;2023-07-09T12:47:46;32.50;37.90
29813;DHT22;16707;48.106;11.548;2023-07-09T12:50:30;32.60;38.60
29813;DHT22;16707;48.106;11.548;2023-07-09T12:53:02;32.70;37.60
29813;DHT22;16707;48.106;11.548;2023-07-09T12:55:39;32.70;37.40
29813;DHT22;16707;48.106;11.548;2023-07-09T12:58:10;32.60;37.00
29813;DHT22;16707;48.106;11.548;2023-07-09T13:00:38;32.60;37.80
29813;DHT22;16707;48.106;11.548;2023-07-09T13:03:13;32.90;38.00
29813;DHT22;16707;48.106;11.548;2023-07-09T13:05:51;32.90;37.00
29813;DHT22;16707;48.106;11.548;2023-07-09T13:08:19;33.10;37.90
29813;DHT22;16707;48.106;11.548;2023-07-09T13:10:48;33.00;36.70
29813;DHT22;16707;48.106;11.548;2023-07-09T13:13:19;32.90;36.70
29813;DHT22;16707;48.106;11.548;2023-07-09T13:15:48;33.00;37.10
29813;DHT22;16707;48.106;11.548;2023-07-09T13:18:17;33.00;36.90
29813;DHT22;16707;48.106;11.548;2023-07-09T13:20:45;33.10;36.40
29813;DHT22;16707;48.106;11.548;2023-07-09T13:23:15;33.00;36.60
29813;DHT22;16707;48.106;11.548;2023-07-09T13:25:43;33.20;36.70
29813;DHT22;16707;48.106;11.548;2023-07-09T13:28:16;33.20;37.70
29813;DHT22;16707;48.106;11.548;2023-07-09T13:30:45;33.00;38.60
29813;DHT22;16707;48.106;11.548;2023-07-09T13:33:11;32.70;38.70
29813;DHT22;16707;48.106;11.548;2023-07-09T13:35:39;32.80;38.20
29813;DHT22;16707;48.106;11.548;2023-07-09T13:38:12;32.90;38.30
29813;DHT22;16707;48.106;11.548;2023-07-09T13:40:42;32.80;37.50
29813;DHT22;16707;48.106;11.548;2023-07-09T13:43:16;32.80;38.40
29813;DHT22;16707;48.106;11.548;2023-07-09T13:45:52;33.00;37.10
29813;DHT22;16707;48.106;11.548;2023-07-09T13:48:21;32.90;36.50
29813;DHT22;16707;48.106;11.548;2023-07-09T13:50:51;32.70;38.00
29813;DHT22;16707;48.106;11.548;2023-07-09T13:53:21;32.70;39.00
29813;DHT22;16707;48.106;11.548;2023-07-09T13:55:50;32.70;36.80
29813;DHT22;16707;48.106;11.548;2023-07-09T13:58:20;32.70;38.00
29813;DHT22;16707;48.106;11.548;2023-07-09T14:00:50;32.70;36.90
29813;DHT22;16707;48.106;11.548;2023-07-09T14:03:23;32.50;37.30
29813;DHT22;16707;48.106;11.548;2023-07-09T14:05:52;32.50;38.10
29813;DHT22;16707;48.106;11.548;2023-07-09T14:08:20;32.30;37.40
29813;DHT22;16707;48.106;11.548;2023-07-09T14:10:47;32.40;37.70
29813;DHT22;16707;48.106;11.548;2023-07-09T14:13:16;32.40;39.20
29813;DHT22;16707;48.106;11.548;2023-07-09T14:15:46;32.60;38.80
29813;DHT22;16707;48.106;11.548;2023-07-09T14:18:15;32.80;37.60
29813;DHT22;16707;48.106;11.548;2023-07-09T14:20:42;32.80;37.10
29813;DHT22;16707;48.106;11.548;2023-07-09T14:23:11;33.00;37.20
29813;DHT22;16707;48.106;11.548;2023-07-09T14:25:38;33.00;36.50
29813;DHT22;16707;48.106;11.548;2023-07-09T14:28:10;33.00;37.60
29813;DHT22;16707;48.106;11.548;2023-07-09T14:30:38;32.90;37.60
29813;DHT22;16707;48.106;11.548;2023-07-09T14:33:12;33.10;37.00
29813;DHT22;16707;48.106;11.548;2023-07-09T14:35:40;32.90;36.10
29813;DHT22;16707;48.106;11.548;2023-07-09T14:38:19;32.80;36.80
29813;DHT22;16707;48.106;11.548;2023-07-09T14:40:49;32.60;36.80
29813;DHT22;16707;48.106;11.548;2023-07-09T14:43:16;32.50;37.10
29813;DHT22;16707;48.106;11.548;2023-07-09T14:45:44;32.40;37.30
29813;DHT22;16707;48.106;11.548;2023-07-09T14:48:14;32.40;36.90
29813;DHT22;16707;48.106;11.548;2023-07-09T14:50:42;32.30;38.00
29813;DHT22;16707;48.106;11.548;2023-07-09T14:53:14;32.30;37.90
29813;DHT22;16707;48.106;11.548;2023-07-09T14:55:43;32.40;37.90
29813;DHT22;16707;48.106;11.548;2023-07-09T14:58:14;32.30;38.10
29813;DHT22;16707;48.106;11.548;2023-07-09T15:00:43;32.30;38.50
29813;DHT22;16707;48.106;11.548;2023-07-09T15:03:18;32.20;38.50
29813;DHT22;16707;48.106;11.548;2023-07-09T15:05:46;32.40;38.60
29813;DHT22;16707;48.106;11.548;2023-07-09T15:08:15;32.40;37.90
29813;DHT22;16707;48.106;11.548;2023-07-09T15:10:43;32.10;38.20
29813;DHT22;16707;48.106;11.548;2023-07-09T15:13:16;32.00;38.70
29813;DHT22;16707;48.106;11.548;2023-07-09T15:15:44;32.00;38.90
29813;DHT22;16707;48.106;11.548;2023-07-09T15:18:14;31.90;39.50
29813;DHT22;16707;48.106;11.548;2023-07-09T15:20:46;32.00;40.00
29813;DHT22;16707;48.106;11.548;2023-07-09T15:23:15;32.00;39.30
29813;DHT22;16707;48.106;11.548;2023-07-09T15:25:42;32.00;40.10
29813;DHT22;16707;48.106;11.548;2023-07-09T15:28:10;32.00;38.50
29813;DHT22;16707;48.106;11.548;2023-07-09T15:30:37;32.00;38.60
29813;DHT22;16707;48.106;11.548;2023-07-09T15:33:05;32.00;38.80